Time;durP1;ratioP1;P1;durP2;ratioP2;P2;SDS_P1;SDS_P2;PMS_P1;PMS_P2;Temp;Humidity;BMP_temperature;BMP_pressure;BME280_temperature;BME280_humidity;BME280_pressure;Samples;Min_cycle;Max_cycle;Signal;HPM_P1;HPM_P2
2022/07/10 00:00:44;;;;;;;12.60;1.85;;;13.90;82.40;;;;;;5066511;28;20518;-45
2022/07/10 00:03:10;;;;;;;11.45;2.50;;;13.90;82.30;;;;;;5065552;28;20357;-45
2022/07/10 00:05:36;;;;;;;11.30;1.85;;;13.90;82.00;;;;;;5069602;28;20098;-45
2022/07/10 00:08:02;;;;;;;10.45;1.55;;;13.90;81.90;;;;;;5069569;28;20475;-45
2022/07/10 00:10:28;;;;;;;10.20;2.45;;;13.90;82.10;;;;;;5069505;28;20024;-46
2022/07/10 00:12:54;;;;;;;9.82;1.95;;;13.90;81.90;;;;;;5068795;28;20024;-45
2022/07/10 00:15:20;;;;;;;10.30;2.47;;;13.90;82.00;;;;;;5050808;28;20388;-45
2022/07/10 00:17:46;;;;;;;7.43;1.65;;;13.90;82.40;;;;;;5068425;28;20081;-44
2022/07/10 00:20:13;;;;;;;9.63;2.10;;;13.90;82.60;;;;;;5067952;28;20016;-46
2022/07/10 00:22:42;;;;;;;10.55;3.10;;;13.90;82.50;;;;;;5068413;28;20040;-45
2022/07/10 00:25:11;;;;;;;8.68;1.90;;;13.80;82.10;;;;;;5068801;28;20028;-46
2022/07/10 00:27:37;;;;;;;8.82;1.90;;;13.80;81.60;;;;;;5069490;28;20334;-45
2022/07/10 00:30:03;;;;;;;7.18;1.80;;;13.80;81.10;;;;;;5069329;28;20051;-45
2022/07/10 00:32:29;;;;;;;10.73;1.92;;;13.80;80.40;;;;;;5068804;28;20033;-48
2022/07/10 00:34:54;;;;;;;7.72;1.40;;;13.80;79.60;;;;;;5068859;28;20338;-46
2022/07/10 00:37:23;;;;;;;8.55;2.53;;;13.80;79.00;;;;;;5050917;28;20218;-46
2022/07/10 00:39:49;;;;;;;6.70;1.67;;;13.80;79.10;;;;;;5051321;28;20021;-44
2022/07/10 00:42:16;;;;;;;5.88;1.52;;;13.90;78.80;;;;;;5067555;28;20036;-44
2022/07/10 00:44:42;;;;;;;7.80;1.63;;;13.90;78.50;;;;;;5067289;28;20024;-46
2022/07/10 00:47:10;;;;;;;6.78;1.60;;;13.90;77.70;;;;;;5067061;28;20028;-47
2022/07/10 00:49:39;;;;;;;5.45;1.70;;;13.90;77.20;;;;;;5058549;28;20028;-45
2022/07/10 00:52:11;;;;;;;11.32;2.72;;;14.00;77.20;;;;;;5067947;28;20041;-45
2022/07/10 00:54:41;;;;;;;10.25;2.50;;;14.10;76.90;;;;;;5051100;28;20036;-45
2022/07/10 00:57:07;;;;;;;10.23;2.22;;;14.10;76.80;;;;;;5050812;28;20025;-48
2022/07/10 00:59:34;;;;;;;6.60;1.30;;;14.10;76.70;;;;;;5068951;28;20369;-45
2022/07/10 01:02:01;;;;;;;12.25;2.08;;;14.00;76.80;;;;;;5068612;28;20110;-45
2022/07/10 01:04:27;;;;;;;9.88;1.77;;;14.00;77.10;;;;;;5051193;28;20025;-45
2022/07/10 01:06:53;;;;;;;9.20;2.30;;;14.10;77.40;;;;;;5072807;28;20038;-45
2022/07/10 01:09:18;;;;;;;9.80;1.90;;;14.00;77.60;;;;;;5072700;28;20109;-46
2022/07/10 01:11:45;;;;;;;5.93;1.75;;;14.00;77.80;;;;;;5072708;28;20039;-46
2022/07/10 01:14:10;;;;;;;7.28;1.67;;;13.90;77.00;;;;;;5072433;28;20125;-46
2022/07/10 01:16:37;;;;;;;11.23;3.22;;;13.90;76.70;;;;;;5071346;28;20057;-45
2022/07/10 01:19:03;;;;;;;11.02;2.20;;;13.90;76.40;;;;;;5086974;28;20028;-46
2022/07/10 01:21:34;;;;;;;6.78;1.42;;;13.80;76.30;;;;;;5071920;28;20039;-45
2022/07/10 01:24:04;;;;;;;6.88;1.90;;;13.70;76.40;;;;;;5072189;28;20062;-46
2022/07/10 01:26:29;;;;;;;6.78;1.67;;;13.60;76.60;;;;;;5072303;28;20054;-45
2022/07/10 01:28:57;;;;;;;8.13;2.03;;;13.50;77.00;;;;;;5071884;28;20070;-45
2022/07/10 01:31:27;;;;;;;7.28;1.92;;;13.50;77.60;;;;;;5071937;28;20108;-45
2022/07/10 01:33:59;;;;;;;11.05;2.65;;;13.50;77.50;;;;;;5072357;28;20077;-44
2022/07/10 01:36:25;;;;;;;6.72;1.92;;;13.50;77.80;;;;;;5051855;28;20501;-45
2022/07/10 01:38:52;;;;;;;7.38;1.85;;;13.50;77.80;;;;;;5072182;28;20033;-44
2022/07/10 01:41:17;;;;;;;7.68;2.45;;;13.50;77.50;;;;;;5053794;28;20035;-45
2022/07/10 01:43:45;;;;;;;5.60;1.90;;;13.50;77.00;;;;;;5072008;28;20055;-45
2022/07/10 01:46:12;;;;;;;8.30;2.28;;;13.50;76.50;;;;;;5071773;28;20118;-45
2022/07/10 01:48:40;;;;;;;7.30;1.75;;;13.50;76.40;;;;;;5072022;28;20032;-45
2022/07/10 01:51:07;;;;;;;7.28;1.23;;;13.50;76.30;;;;;;5072019;28;20033;-45
2022/07/10 01:53:33;;;;;;;7.80;2.72;;;13.40;76.00;;;;;;5071641;28;20106;-44
2022/07/10 01:56:02;;;;;;;6.15;1.67;;;13.50;75.90;;;;;;5071714;28;20066;-45
2022/07/10 01:58:28;;;;;;;10.70;1.95;;;13.50;76.00;;;;;;5053770;28;20093;-46
2022/07/10 02:00:54;;;;;;;10.82;2.80;;;13.60;77.00;;;;;;5052940;28;20036;-44
2022/07/10 02:06:04;;;;;;;10.60;2.15;;;13.70;80.40;;;;;;5071251;28;20036;-44
2022/07/10 02:08:29;;;;;;;10.45;2.60;;;13.80;82.60;;;;;;5070586;28;20040;-45
2022/07/10 02:10:55;;;;;;;8.65;2.35;;;13.70;83.10;;;;;;5053154;28;20370;-46
2022/07/10 02:13:20;;;;;;;12.85;2.63;;;13.70;83.30;;;;;;5070362;28;20032;-45
2022/07/10 02:15:47;;;;;;;7.70;2.00;;;13.70;83.40;;;;;;5052640;28;20028;-45
2022/07/10 02:18:16;;;;;;;7.55;1.77;;;13.70;83.50;;;;;;5052502;28;20404;-46
2022/07/10 02:20:42;;;;;;;7.03;1.60;;;13.70;83.70;;;;;;5070744;28;20032;-45
2022/07/10 02:23:07;;;;;;;8.65;1.70;;;13.70;83.80;;;;;;5052934;28;20051;-43
2022/07/10 02:25:33;;;;;;;9.55;1.73;;;13.70;83.90;;;;;;5070942;28;20453;-45
2022/07/10 02:27:59;;;;;;;9.95;2.38;;;13.70;84.00;;;;;;5071175;28;20045;-45
2022/07/10 02:30:25;;;;;;;6.90;1.67;;;13.60;84.10;;;;;;5070960;28;20025;-45
2022/07/10 02:32:51;;;;;;;9.50;1.85;;;13.60;84.00;;;;;;5070972;28;20036;-44
2022/07/10 02:35:19;;;;;;;11.18;2.78;;;13.60;83.90;;;;;;5070823;28;20025;-46
2022/07/10 02:37:46;;;;;;;9.50;2.00;;;13.70;83.80;;;;;;5053033;28;20127;-45
2022/07/10 02:40:12;;;;;;;16.88;1.75;;;13.70;83.70;;;;;;5052988;28;20439;-46
2022/07/10 02:42:38;;;;;;;9.40;2.38;;;13.70;83.60;;;;;;5044825;28;20051;-45
2022/07/10 02:45:04;;;;;;;9.25;2.80;;;13.70;83.70;;;;;;5050245;28;20033;-45
2022/07/10 02:47:30;;;;;;;12.77;2.28;;;13.70;83.60;;;;;;5032910;28;20343;-45
2022/07/10 02:49:55;;;;;;;12.68;2.28;;;13.60;83.30;;;;;;5078368;28;20082;-45
2022/07/10 02:52:21;;;;;;;9.52;2.47;;;13.60;83.10;;;;;;5050605;28;20091;-45
2022/07/10 02:54:47;;;;;;;9.63;1.98;;;13.60;82.30;;;;;;5051073;28;20017;-45
2022/07/10 02:57:13;;;;;;;9.32;2.13;;;13.60;81.70;;;;;;5050744;28;20103;-48
2022/07/10 02:59:38;;;;;;;8.32;2.00;;;13.60;81.10;;;;;;5033468;28;20430;-46
2022/07/10 03:02:04;;;;;;;8.95;1.75;;;13.60;80.80;;;;;;5050608;28;20500;-44
2022/07/10 03:04:33;;;;;;;8.55;1.98;;;13.60;80.40;;;;;;5032904;28;20036;-45
2022/07/10 03:06:58;;;;;;;14.63;3.10;;;13.70;80.30;;;;;;5050766;28;20024;-45
2022/07/10 03:09:25;;;;;;;10.48;2.47;;;13.70;80.30;;;;;;5050617;28;20044;-45
2022/07/10 03:11:51;;;;;;;11.48;3.10;;;13.70;80.00;;;;;;5050539;28;20454;-47
2022/07/10 03:14:17;;;;;;;10.10;2.35;;;13.70;80.00;;;;;;5049033;28;20127;-45
2022/07/10 03:16:45;;;;;;;11.45;2.40;;;13.70;79.90;;;;;;5050748;28;20158;-45
2022/07/10 03:19:10;;;;;;;11.65;2.70;;;13.70;79.80;;;;;;5035941;28;20062;-46
2022/07/10 03:21:36;;;;;;;10.70;2.45;;;13.60;79.90;;;;;;5049999;28;20025;-45
2022/07/10 03:24:02;;;;;;;7.05;2.55;;;13.50;79.80;;;;;;5050072;28;20044;-46
2022/07/10 03:26:30;;;;;;;16.05;3.70;;;13.50;79.20;;;;;;5033567;28;20036;-46
2022/07/10 03:28:58;;;;;;;11.98;3.20;;;13.50;78.90;;;;;;5031745;28;20403;-48
2022/07/10 03:31:24;;;;;;;12.43;3.35;;;13.50;78.70;;;;;;5049672;28;20033;-45
2022/07/10 03:33:52;;;;;;;14.35;3.00;;;13.60;78.80;;;;;;5032210;28;20028;-46
2022/07/10 03:36:18;;;;;;;11.70;3.17;;;13.60;78.50;;;;;;5050035;28;20083;-47
2022/07/10 03:38:46;;;;;;;10.45;2.55;;;13.70;78.40;;;;;;5049986;28;20110;-45
2022/07/10 03:41:15;;;;;;;20.40;4.57;;;13.70;78.40;;;;;;5049634;28;20115;-48
2022/07/10 03:43:41;;;;;;;10.02;3.10;;;13.70;78.50;;;;;;5065242;28;20048;-45
2022/07/10 03:46:06;;;;;;;9.75;2.20;;;13.70;78.50;;;;;;5051935;28;20051;-45
2022/07/10 03:48:33;;;;;;;9.80;2.85;;;13.80;78.20;;;;;;5052042;28;20059;-46
2022/07/10 03:50:59;;;;;;;7.07;1.90;;;13.80;78.00;;;;;;5051954;28;20028;-45
2022/07/10 03:53:25;;;;;;;9.40;2.28;;;13.80;77.70;;;;;;5069531;28;20410;-45
2022/07/10 03:55:54;;;;;;;13.48;2.25;;;13.90;77.10;;;;;;5069380;28;20044;-45
2022/07/10 03:58:22;;;;;;;11.27;2.67;;;13.90;76.50;;;;;;5069312;28;20016;-45
2022/07/10 04:00:47;;;;;;;12.65;2.80;;;13.90;76.00;;;;;;5069012;28;20039;-45
2022/07/10 04:03:16;;;;;;;10.55;2.53;;;14.00;76.40;;;;;;5069242;28;20040;-45
2022/07/10 04:05:41;;;;;;;9.80;3.03;;;14.00;76.80;;;;;;5051822;28;20028;-46
2022/07/10 04:08:08;;;;;;;13.63;3.58;;;14.10;77.00;;;;;;5051406;28;20027;-45
2022/07/10 04:10:34;;;;;;;8.60;2.42;;;14.10;77.30;;;;;;5069284;28;20045;-46
2022/07/10 04:13:00;;;;;;;10.88;2.72;;;14.10;77.20;;;;;;5068769;28;20032;-46
2022/07/10 04:15:29;;;;;;;9.70;2.17;;;14.20;76.70;;;;;;5068886;28;20074;-46
2022/07/10 04:17:59;;;;;;;15.90;3.40;;;14.20;76.30;;;;;;5068781;28;20021;-48
2022/07/10 04:20:27;;;;;;;10.98;2.65;;;14.20;75.80;;;;;;5031620;28;20029;-46
2022/07/10 04:22:52;;;;;;;15.65;2.70;;;14.30;75.70;;;;;;5068381;28;20020;-46
2022/07/10 04:25:18;;;;;;;13.57;2.67;;;14.30;75.80;;;;;;5068644;28;20025;-47
2022/07/10 04:27:44;;;;;;;12.38;3.22;;;14.30;76.10;;;;;;5069038;28;20036;-45
2022/07/10 04:30:10;;;;;;;10.98;3.25;;;14.30;76.30;;;;;;5051301;28;20036;-46
2022/07/10 04:32:36;;;;;;;13.60;3.65;;;14.20;76.70;;;;;;5051041;28;20037;-46
2022/07/10 04:35:05;;;;;;;9.95;2.22;;;14.10;77.10;;;;;;5051441;28;20179;-46
2022/07/10 04:37:30;;;;;;;13.57;2.47;;;14.10;77.40;;;;;;5068442;28;20035;-45
2022/07/10 04:39:56;;;;;;;9.48;2.42;;;14.10;77.10;;;;;;5068344;28;20157;-45
2022/07/10 04:42:22;;;;;;;12.05;2.67;;;14.10;77.00;;;;;;5044332;28;20045;-50
2022/07/10 04:44:47;;;;;;;18.23;3.20;;;14.30;76.60;;;;;;5030518;28;20029;-46
2022/07/10 04:47:15;;;;;;;12.60;2.95;;;14.50;76.00;;;;;;5047401;28;20035;-46
2022/07/10 04:49:43;;;;;;;13.75;3.30;;;14.60;74.80;;;;;;5048449;28;20108;-46
2022/07/10 04:52:11;;;;;;;11.20;3.55;;;14.80;73.30;;;;;;5048743;28;20037;-47
2022/07/10 04:54:37;;;;;;;11.75;2.75;;;14.90;73.00;;;;;;5032643;28;20075;-46
2022/07/10 04:57:03;;;;;;;10.13;2.30;;;15.00;72.80;;;;;;5048678;28;20029;-45
2022/07/10 04:59:28;;;;;;;13.32;2.97;;;15.10;73.30;;;;;;5048696;28;20029;-46
2022/07/10 05:01:56;;;;;;;9.52;2.58;;;15.10;74.00;;;;;;5048351;28;20387;-45
2022/07/10 05:04:26;;;;;;;11.50;2.92;;;15.00;74.80;;;;;;5048190;28;20036;-45
2022/07/10 05:06:52;;;;;;;12.95;2.83;;;15.10;75.40;;;;;;5046532;28;20040;-46
2022/07/10 05:09:19;;;;;;;13.32;2.80;;;15.00;75.90;;;;;;5047314;28;20025;-45
2022/07/10 05:11:45;;;;;;;9.98;2.25;;;15.00;76.10;;;;;;5048082;28;20024;-46
2022/07/10 05:14:11;;;;;;;10.88;2.90;;;14.90;74.30;;;;;;5046800;28;20036;-45
2022/07/10 05:16:37;;;;;;;11.10;2.20;;;14.90;72.40;;;;;;5047963;28;20104;-46
2022/07/10 05:19:02;;;;;;;7.75;2.28;;;14.90;72.80;;;;;;5048116;28;20084;-46
2022/07/10 05:21:28;;;;;;;14.45;2.83;;;14.80;73.00;;;;;;5048110;28;20029;-46
2022/07/10 05:23:53;;;;;;;13.90;2.58;;;14.90;73.00;;;;;;5048264;28;20083;-46
2022/07/10 05:26:21;;;;;;;14.43;2.97;;;14.90;73.00;;;;;;5052257;28;20029;-46
2022/07/10 05:28:49;;;;;;;12.70;2.22;;;14.90;72.90;;;;;;5048505;28;20029;-46
2022/07/10 05:31:15;;;;;;;9.10;2.47;;;15.00;72.90;;;;;;5048069;28;20037;-46
2022/07/10 05:33:42;;;;;;;9.77;2.88;;;15.00;72.80;;;;;;5048275;28;20419;-45
2022/07/10 05:36:08;;;;;;;14.15;3.70;;;15.00;72.90;;;;;;5048173;28;20033;-45
2022/07/10 05:38:34;;;;;;;9.30;2.13;;;14.90;73.30;;;;;;5047773;28;20025;-45
2022/07/10 05:40:59;;;;;;;12.70;3.95;;;14.90;73.10;;;;;;5048297;28;20949;-46
2022/07/10 05:43:25;;;;;;;11.85;3.45;;;14.90;73.50;;;;;;5062536;28;20364;-45
2022/07/10 05:45:51;;;;;;;10.00;2.60;;;14.90;73.00;;;;;;5050256;28;20097;-45
2022/07/10 05:48:19;;;;;;;11.18;2.70;;;15.00;73.70;;;;;;5067594;28;20029;-47
2022/07/10 05:50:45;;;;;;;11.73;2.83;;;15.00;73.90;;;;;;5068598;28;20039;-46
2022/07/10 05:53:10;;;;;;;13.13;2.83;;;15.20;73.70;;;;;;5070889;28;20264;-48
2022/07/10 05:55:36;;;;;;;11.13;3.00;;;15.30;73.50;;;;;;5051962;28;20024;-46
2022/07/10 05:58:02;;;;;;;15.43;3.42;;;15.40;72.50;;;;;;5070787;28;20092;-48
2022/07/10 06:00:30;;;;;;;15.50;4.07;;;15.50;72.70;;;;;;5070802;28;20361;-48
2022/07/10 06:02:55;;;;;;;7.35;1.98;;;15.70;71.70;;;;;;5071357;28;20036;-47
2022/07/10 06:05:21;;;;;;;13.75;2.38;;;15.70;71.60;;;;;;5053415;28;20028;-46
2022/07/10 06:07:47;;;;;;;12.85;2.85;;;15.70;71.20;;;;;;5071768;28;20028;-49
2022/07/10 06:10:13;;;;;;;11.25;2.15;;;15.70;71.20;;;;;;5070473;28;20056;-46
2022/07/10 06:12:38;;;;;;;14.30;2.67;;;15.70;70.40;;;;;;5070166;28;20103;-46
2022/07/10 06:15:04;;;;;;;8.88;2.53;;;15.70;70.60;;;;;;5071142;28;20031;-46
2022/07/10 06:17:30;;;;;;;10.80;2.92;;;15.70;70.30;;;;;;5070803;28;20020;-48
2022/07/10 06:19:58;;;;;;;11.27;2.45;;;15.60;70.30;;;;;;5070538;28;20024;-46
2022/07/10 06:22:30;;;;;;;10.77;3.65;;;15.70;71.20;;;;;;5052993;28;20645;-47
2022/07/10 06:25:06;;;;;;;9.05;2.67;;;15.70;70.70;;;;;;5053609;28;20369;-46
2022/07/10 06:27:32;;;;;;;8.73;2.53;;;15.80;70.10;;;;;;5071082;28;20035;-47
2022/07/10 06:29:58;;;;;;;29.17;2.97;;;15.80;69.30;;;;;;5071133;28;20020;-49
2022/07/10 06:32:29;;;;;;;12.63;2.60;;;15.90;69.90;;;;;;5070567;28;20123;-45
2022/07/10 06:34:55;;;;;;;10.13;2.92;;;15.90;69.80;;;;;;5070274;28;20111;-46
2022/07/10 06:37:23;;;;;;;7.20;1.95;;;16.00;69.50;;;;;;5071049;28;20067;-47
2022/07/10 06:39:49;;;;;;;10.85;2.80;;;16.10;69.70;;;;;;5071296;28;20021;-45
2022/07/10 06:42:17;;;;;;;7.57;2.65;;;16.30;68.80;;;;;;5070491;28;20363;-48
2022/07/10 06:44:44;;;;;;;;;;;16.40;69.80;;;;;;5071255;28;20052;-48
2022/07/10 06:49:57;;;;;;;12.73;3.28;;;16.30;68.90;;;;;;5063045;28;20115;-47
2022/07/10 06:52:23;;;;;;;11.50;3.15;;;16.30;69.10;;;;;;5070696;28;20107;-46
2022/07/10 06:54:49;;;;;;;9.23;3.00;;;16.20;68.80;;;;;;5061410;28;20112;-46
2022/07/10 06:57:20;;;;;;;7.93;2.22;;;16.00;69.10;;;;;;5083124;28;20043;-46
2022/07/10 06:59:51;;;;;;;11.07;2.67;;;15.90;69.60;;;;;;5072916;28;20039;-46
2022/07/10 07:02:17;;;;;;;9.25;3.05;;;15.90;70.10;;;;;;5056014;28;20479;-47
2022/07/10 07:04:45;;;;;;;7.45;2.33;;;15.90;71.10;;;;;;5071175;28;20040;-46
2022/07/10 07:07:12;;;;;;;9.32;2.03;;;16.00;70.60;;;;;;5070276;28;20119;-46
2022/07/10 07:09:39;;;;;;;10.57;2.45;;;16.10;69.80;;;;;;5052187;28;20035;-45
2022/07/10 07:12:07;;;;;;;11.27;2.60;;;16.20;69.50;;;;;;5070224;28;20047;-46
2022/07/10 07:14:36;;;;;;;9.57;2.13;;;16.30;69.40;;;;;;5070435;28;20096;-46
2022/07/10 07:17:06;;;;;;;8.95;1.90;;;16.70;69.50;;;;;;5051833;28;20034;-48
2022/07/10 07:23:09;;;;;;;5.10;1.67;;;17.30;67.50;;;;;;5069403;28;20067;-46
2022/07/10 07:25:09;;;;;;;8.35;1.73;;;17.40;65.30;;;;;;5068237;28;20031;-47
2022/07/10 07:27:36;;;;;;;11.45;3.20;;;17.10;65.30;;;;;;5068377;28;20029;-47
2022/07/10 07:30:15;;;;;;;7.68;2.13;;;16.90;66.30;;;;;;5051527;28;20039;-47
2022/07/10 07:32:42;;;;;;;11.37;2.90;;;16.70;67.00;;;;;;5068858;28;20036;-47
2022/07/10 07:35:11;;;;;;;7.30;2.30;;;16.50;67.80;;;;;;5050942;28;20275;-47
2022/07/10 07:37:47;;;;;;;6.88;2.38;;;16.40;69.10;;;;;;5067876;28;20353;-47
2022/07/10 07:40:23;;;;;;;12.27;2.53;;;16.20;70.00;;;;;;5051779;28;20035;-46
2022/07/10 07:42:55;;;;;;;12.70;3.53;;;16.10;70.70;;;;;;5066172;28;20170;-48
2022/07/10 07:45:22;;;;;;;14.95;3.08;;;16.00;71.90;;;;;;5068963;28;20035;-46
2022/07/10 07:47:55;;;;;;;13.25;4.05;;;15.90;72.80;;;;;;5068399;28;21023;-48
2022/07/10 07:50:28;;;;;;;9.90;2.22;;;15.70;74.10;;;;;;5066752;28;20055;-46
2022/07/10 07:52:54;;;;;;;9.73;2.38;;;15.80;74.90;;;;;;5054219;28;20050;-46
2022/07/10 07:55:24;;;;;;;10.10;2.78;;;15.90;75.20;;;;;;5051192;28;20016;-49
2022/07/10 07:57:55;;;;;;;10.00;2.35;;;16.10;74.20;;;;;;5050474;28;20053;-47
2022/07/10 08:00:26;;;;;;;10.48;2.55;;;16.50;72.40;;;;;;5049696;28;20094;-47
2022/07/10 08:02:52;;;;;;;9.50;2.45;;;16.90;69.00;;;;;;5050274;28;20028;-46
2022/07/10 08:05:19;;;;;;;10.30;2.03;;;17.60;64.80;;;;;;5050432;28;20108;-46
2022/07/10 08:07:50;;;;;;;9.40;2.10;;;18.60;60.60;;;;;;5047088;28;20060;-48
2022/07/10 08:10:18;;;;;;;9.05;1.80;;;19.60;57.40;;;;;;5059424;28;20062;-48
2022/07/10 08:12:46;;;;;;;6.50;1.90;;;19.80;56.30;;;;;;5068955;28;20024;-51
2022/07/10 08:15:17;;;;;;;11.23;2.95;;;19.60;58.90;;;;;;5068066;28;20446;-51
2022/07/10 08:17:47;;;;;;;7.60;2.20;;;19.20;59.50;;;;;;5050817;28;20063;-49
2022/07/10 08:20:13;;;;;;;11.27;1.92;;;18.90;59.10;;;;;;5067522;28;20020;-50
2022/07/10 08:22:41;;;;;;;11.10;2.75;;;18.40;60.10;;;;;;5068226;28;20033;-47
2022/07/10 08:25:08;;;;;;;14.20;3.10;;;17.90;62.30;;;;;;5050717;28;20675;-48
2022/07/10 08:27:34;;;;;;;11.07;2.75;;;17.60;63.90;;;;;;5068519;28;20033;-46
2022/07/10 08:30:00;;;;;;;15.63;3.42;;;17.30;65.80;;;;;;5068145;28;20047;-47
2022/07/10 08:32:27;;;;;;;13.88;2.33;;;16.90;67.60;;;;;;5050962;28;20437;-46
2022/07/10 08:34:55;;;;;;;11.18;3.25;;;16.70;69.50;;;;;;5067593;28;20125;-46
2022/07/10 08:37:21;;;;;;;12.50;3.15;;;16.50;70.20;;;;;;5067887;28;20032;-48
2022/07/10 08:39:46;;;;;;;10.98;2.30;;;16.20;71.80;;;;;;5050659;28;20035;-48
2022/07/10 08:42:14;;;;;;;13.70;3.53;;;16.00;73.60;;;;;;5067974;28;20121;-48
2022/07/10 08:44:40;;;;;;;17.73;3.83;;;15.90;75.20;;;;;;5068514;28;20023;-46
2022/07/10 08:47:06;;;;;;;12.80;2.70;;;15.80;76.40;;;;;;5067530;28;20364;-46
2022/07/10 08:49:35;;;;;;;11.65;3.13;;;15.90;76.70;;;;;;5067527;28;20021;-46
2022/07/10 08:52:06;;;;;;;9.93;3.03;;;15.80;76.00;;;;;;5066125;28;20020;-46
2022/07/10 08:54:33;;;;;;;11.90;2.80;;;15.90;75.90;;;;;;5067110;28;20029;-46
2022/07/10 08:57:05;;;;;;;11.63;2.85;;;16.10;74.50;;;;;;5066415;28;20074;-47
2022/07/10 08:59:31;;;;;;;10.02;3.05;;;16.50;72.80;;;;;;5068159;28;20046;-47
2022/07/10 09:01:57;;;;;;;10.90;2.53;;;17.40;70.20;;;;;;5050447;28;20063;-46
2022/07/10 09:04:25;;;;;;;12.35;2.80;;;18.00;67.80;;;;;;5068383;28;20025;-46
2022/07/10 09:06:52;;;;;;;10.00;2.75;;;18.40;67.00;;;;;;5050467;28;20089;-45
2022/07/10 09:09:18;;;;;;;13.93;2.35;;;19.10;66.50;;;;;;5068009;28;20021;-46
2022/07/10 09:11:44;;;;;;;9.73;3.15;;;19.70;64.50;;;;;;5055831;28;20039;-46
2022/07/10 09:14:16;;;;;;;10.65;2.97;;;19.90;65.10;;;;;;5050826;28;20383;-46
2022/07/10 09:16:45;;;;;;;12.23;3.85;;;19.70;64.10;;;;;;5067747;28;20021;-49
2022/07/10 09:19:21;;;;;;;16.70;3.38;;;19.30;62.70;;;;;;5067317;28;20028;-46
2022/07/10 09:21:49;;;;;;;10.23;2.75;;;18.90;65.30;;;;;;5066914;28;20821;-46
2022/07/10 09:24:22;;;;;;;11.45;2.72;;;18.70;66.00;;;;;;5065126;28;20093;-46
2022/07/10 09:26:54;;;;;;;10.32;2.30;;;18.50;66.30;;;;;;5052321;28;20077;-46
2022/07/10 09:29:19;;;;;;;10.18;2.67;;;18.60;66.60;;;;;;5071723;28;20047;-46
2022/07/10 09:31:56;;;;;;;9.50;3.05;;;18.90;66.10;;;;;;5071176;28;20338;-46
2022/07/10 09:34:41;;;;;;;12.82;2.72;;;19.10;66.70;;;;;;5072073;28;20357;-46
2022/07/10 09:37:19;;;;;;;11.75;2.25;;;19.40;65.20;;;;;;5071039;28;20038;-48
2022/07/10 09:40:05;;;;;;;12.02;2.88;;;19.20;64.60;;;;;;5072383;28;20339;-47
2022/07/10 09:42:39;;;;;;;11.55;2.65;;;18.90;63.90;;;;;;5070356;28;20044;-46
2022/07/10 09:45:17;;;;;;;10.15;2.50;;;18.60;64.20;;;;;;5054241;28;20116;-47
2022/07/10 09:47:46;;;;;;;11.43;2.90;;;18.30;65.40;;;;;;5071933;28;20040;-46
2022/07/10 09:50:28;;;;;;;10.80;3.25;;;17.90;67.00;;;;;;5071958;28;20028;-46
2022/07/10 09:52:58;;;;;;;10.57;2.92;;;17.70;69.30;;;;;;5071044;28;20032;-45
2022/07/10 09:55:35;;;;;;;10.57;2.63;;;17.40;70.20;;;;;;5070687;28;20424;-46
2022/07/10 09:58:00;;;;;;;10.32;3.25;;;17.20;70.70;;;;;;5068973;28;20393;-46
2022/07/10 10:00:31;;;;;;;13.43;2.33;;;17.20;73.00;;;;;;5053289;28;20016;-46
2022/07/10 10:03:04;;;;;;;11.43;3.50;;;17.20;74.70;;;;;;5070690;28;20060;-46
2022/07/10 10:05:38;;;;;;;7.07;2.42;;;17.40;74.60;;;;;;5070965;28;20385;-46
2022/07/10 10:08:26;;;;;;;10.15;2.42;;;17.80;73.30;;;;;;5070254;28;20093;-46
2022/07/10 10:10:53;;;;;;;11.02;2.70;;;17.90;69.50;;;;;;5070489;28;20036;-46
2022/07/10 10:13:28;;;;;;;11.52;2.15;;;17.80;70.00;;;;;;5070688;28;20111;-47
2022/07/10 10:15:54;;;;;;;12.80;2.40;;;17.60;69.80;;;;;;5051799;28;20016;-47
2022/07/10 10:18:22;;;;;;;7.30;1.90;;;17.40;70.60;;;;;;5052084;28;20024;-47
2022/07/10 10:20:50;;;;;;;6.72;1.63;;;17.00;71.70;;;;;;5052136;28;20470;-46
2022/07/10 10:23:18;;;;;;;13.63;2.55;;;16.90;72.80;;;;;;5052579;28;20469;-46
2022/07/10 10:25:46;;;;;;;11.35;2.67;;;16.50;76.10;;;;;;5069939;28;20119;-56
2022/07/10 10:28:16;;;;;;;10.40;3.15;;;16.10;79.00;;;;;;5070294;28;20027;-50
2022/07/10 10:30:44;;;;;;;8.38;2.50;;;15.80;81.20;;;;;;5052759;28;20108;-48
2022/07/10 10:33:31;;;;;;;7.30;2.17;;;15.80;82.30;;;;;;5046943;28;20044;-47
2022/07/10 10:35:57;;;;;;;5.68;1.90;;;15.80;83.00;;;;;;5069974;28;20081;-47
2022/07/10 10:38:22;;;;;;;9.80;2.22;;;15.90;83.80;;;;;;5066821;28;20036;-46
2022/07/10 10:40:48;;;;;;;7.78;1.95;;;16.20;83.80;;;;;;5069452;28;20033;-46
2022/07/10 10:43:23;;;;;;;9.88;2.85;;;16.40;83.40;;;;;;5072490;28;20067;-45
2022/07/10 10:45:52;;;;;;;7.35;2.03;;;16.50;83.40;;;;;;5073379;28;20028;-47
2022/07/10 10:48:21;;;;;;;6.15;1.63;;;16.70;81.30;;;;;;5068162;28;20028;-44
2022/07/10 10:50:53;;;;;;;4.70;1.00;;;16.90;79.20;;;;;;5070083;28;20500;-45
2022/07/10 10:53:27;;;;;;;7.47;1.20;;;16.90;76.20;;;;;;5067557;28;20051;-46
2022/07/10 10:56:03;;;;;;;4.50;1.17;;;16.80;74.60;;;;;;5077985;28;20100;-45
2022/07/10 10:58:43;;;;;;;7.25;2.05;;;16.70;75.90;;;;;;5067873;28;20449;-45
2022/07/10 11:01:26;;;;;;;;;;;16.50;76.90;;;;;;5038135;28;20040;-45
2022/07/10 11:04:13;;;;;;;5.25;1.40;;;16.40;78.90;;;;;;5070370;28;19923;-45
2022/07/10 11:06:45;;;;;;;3.45;1.02;;;16.10;80.10;;;;;;5070240;28;20073;-47
2022/07/10 11:09:34;;;;;;;6.13;1.35;;;15.80;79.90;;;;;;5069553;28;20446;-44
2022/07/10 11:12:01;;;;;;;7.87;2.00;;;15.80;81.50;;;;;;5056398;28;20044;-44
2022/07/10 11:14:28;;;;;;;6.32;1.33;;;15.80;81.50;;;;;;5069112;28;20028;-45
2022/07/10 11:16:57;;;;;;;7.07;1.25;;;15.80;81.50;;;;;;5069634;28;20116;-45
2022/07/10 11:19:25;;;;;;;4.07;1.20;;;15.80;81.80;;;;;;5070056;28;20020;-45
2022/07/10 11:22:05;;;;;;;6.60;1.20;;;15.90;82.00;;;;;;5069577;28;20115;-45
2022/07/10 11:24:40;;;;;;;5.50;1.58;;;16.00;81.50;;;;;;5069807;28;20043;-48
2022/07/10 11:27:20;;;;;;;8.63;1.30;;;16.10;81.00;;;;;;5051204;28;20438;-48
2022/07/10 11:29:48;;;;;;;3.60;0.95;;;16.10;79.90;;;;;;5069169;28;20031;-49
2022/07/10 11:32:19;;;;;;;3.38;0.88;;;16.00;79.50;;;;;;5068611;28;20017;-45
2022/07/10 11:34:45;;;;;;;3.42;0.80;;;16.10;79.20;;;;;;5068573;28;20024;-45
2022/07/10 11:37:16;;;;;;;3.63;1.15;;;16.20;78.90;;;;;;5051575;28;20052;-46
2022/07/10 11:39:44;;;;;;;5.60;1.00;;;16.30;79.30;;;;;;5052244;28;20039;-46
2022/07/10 11:42:12;;;;;;;2.78;0.85;;;16.60;80.10;;;;;;5065710;28;20044;-45
2022/07/10 11:44:37;;;;;;;6.05;1.55;;;17.20;79.50;;;;;;5068903;28;20029;-44
2022/07/10 11:47:04;;;;;;;7.93;1.55;;;17.60;77.10;;;;;;5051455;28;20086;-45
2022/07/10 11:49:30;;;;;;;6.63;1.10;;;17.90;76.80;;;;;;5068718;28;20024;-47
2022/07/10 11:52:03;;;;;;;7.22;1.60;;;18.00;75.00;;;;;;5069063;28;20042;-45
2022/07/10 11:54:28;;;;;;;6.18;1.30;;;18.10;73.30;;;;;;5068830;28;20027;-47
2022/07/10 11:56:54;;;;;;;6.15;1.40;;;18.20;73.10;;;;;;5068409;28;20040;-46
2022/07/10 11:59:27;;;;;;;5.70;1.00;;;18.70;72.50;;;;;;5068760;28;20059;-45
2022/07/10 12:01:56;;;;;;;4.53;0.88;;;18.80;69.90;;;;;;5061280;28;20029;-45
2022/07/10 12:04:25;;;;;;;7.22;1.25;;;18.90;68.40;;;;;;5068916;28;20062;-45
2022/07/10 12:06:55;;;;;;;12.13;2.75;;;19.00;67.50;;;;;;5068999;28;20119;-47
2022/07/10 12:09:24;;;;;;;6.28;1.60;;;19.00;67.70;;;;;;5069137;28;20056;-46
2022/07/10 12:12:08;;;;;;;9.82;1.60;;;19.10;68.10;;;;;;5068639;28;20032;-46
2022/07/10 12:14:34;;;;;;;4.95;1.42;;;19.20;68.20;;;;;;5068177;28;20024;-46
2022/07/10 12:17:01;;;;;;;5.97;1.63;;;19.20;68.30;;;;;;5068624;28;20366;-45
2022/07/10 12:19:36;;;;;;;7.15;2.00;;;18.80;67.10;;;;;;5068742;28;20591;-46
2022/07/10 12:22:02;;;;;;;6.50;1.98;;;18.40;69.40;;;;;;5068701;28;20070;-46
2022/07/10 12:24:28;;;;;;;9.00;1.95;;;17.90;70.60;;;;;;5068530;28;20124;-46
2022/07/10 12:26:58;;;;;;;5.85;1.50;;;17.90;71.00;;;;;;5068680;28;20424;-46
2022/07/10 12:29:26;;;;;;;7.32;1.70;;;17.90;70.80;;;;;;5050718;28;20051;-48
2022/07/10 12:31:55;;;;;;;7.63;1.50;;;18.00;70.40;;;;;;5068383;28;20024;-46
2022/07/10 12:34:43;;;;;;;6.53;1.27;;;18.20;68.10;;;;;;5084116;28;20042;-48
2022/07/10 12:37:13;;;;;;;5.45;1.33;;;18.30;68.00;;;;;;5050828;28;20028;-47
2022/07/10 12:39:53;;;;;;;10.23;1.67;;;18.40;68.80;;;;;;5068985;28;20082;-46
2022/07/10 12:42:29;;;;;;;4.28;1.63;;;18.70;69.40;;;;;;5045581;28;20442;-47
2022/07/10 12:45:12;;;;;;;8.60;1.40;;;18.80;68.30;;;;;;5048429;28;20457;-46
2022/07/10 12:47:45;;;;;;;10.73;2.20;;;18.90;68.30;;;;;;5048314;28;20346;-45
2022/07/10 12:50:12;;;;;;;3.92;1.60;;;18.90;66.50;;;;;;5048924;28;20078;-46
2022/07/10 12:52:38;;;;;;;5.20;1.08;;;19.10;65.30;;;;;;5040811;28;20159;-46
2022/07/10 12:55:19;;;;;;;9.30;1.48;;;19.30;63.30;;;;;;5048420;28;20115;-47
2022/07/10 12:57:51;;;;;;;7.30;1.67;;;19.50;65.00;;;;;;5048691;28;20014;-47